Time;durP1;ratioP1;P1;durP2;ratioP2;P2;SDS_P1;SDS_P2;PMS_P1;PMS_P2;Temp;Humidity;BMP_temperature;BMP_pressure;BME280_temperature;BME280_humidity;BME280_pressure;Samples;Min_cycle;Max_cycle;Signal;HPM_P1;HPM_P2
2022/07/19 00:00:20;;;;;;;7.15;5.05;;;;;;;26.40;78.38;100059.38;5027725;28;20033;-75
2022/07/19 00:02:46;;;;;;;10.27;5.50;;;;;;;26.41;78.84;100055.63;5025071;28;20026;-77
2022/07/19 00:05:14;;;;;;;6.15;4.43;;;;;;;26.52;78.63;100066.69;5026850;28;20032;-77
2022/07/19 00:07:40;;;;;;;6.07;5.47;;;;;;;26.60;77.85;100058.22;5027608;28;20574;-75
2022/07/19 00:10:09;;;;;;;6.53;4.78;;;;;;;26.69;77.48;100057.63;5026604;28;20044;-76
2022/07/19 00:12:35;;;;;;;8.77;5.30;;;;;;;26.79;76.99;100057.06;5026881;28;20034;-77
2022/07/19 00:15:02;;;;;;;9.07;5.53;;;;;;;26.85;76.75;100058.84;5027019;28;20060;-75
2022/07/19 00:17:27;;;;;;;5.05;4.60;;;;;;;26.92;75.91;100056.84;5022328;28;20041;-78
2022/07/19 00:19:53;;;;;;;7.55;4.70;;;;;;;26.95;75.04;100050.97;5023531;28;20033;-78
2022/07/19 00:22:18;;;;;;;8.02;4.93;;;;;;;26.99;74.75;100057.53;5028223;28;20143;-78
2022/07/19 00:24:44;;;;;;;6.13;5.10;;;;;;;27.00;74.77;100056.47;5023599;28;20096;-78
2022/07/19 00:27:09;;;;;;;7.15;5.45;;;;;;;26.94;74.72;100053.91;5031393;28;20029;-78
2022/07/19 00:29:35;;;;;;;8.48;5.57;;;;;;;26.81;75.11;100054.94;5024390;28;20040;-78
2022/07/19 00:32:00;;;;;;;6.40;5.10;;;;;;;26.76;75.46;100057.53;5029312;28;20045;-78
2022/07/19 00:34:26;;;;;;;5.53;5.03;;;;;;;26.79;75.71;100057.06;5025250;28;20541;-78
2022/07/19 00:36:51;;;;;;;6.28;4.70;;;;;;;26.75;76.19;100056.69;5026326;28;20095;-77
2022/07/19 00:39:17;;;;;;;8.68;5.43;;;;;;;26.61;76.88;100060.72;5025188;28;20029;-77
2022/07/19 00:41:43;;;;;;;6.13;5.45;;;;;;;26.57;77.80;100058.72;5028807;28;20064;-78
2022/07/19 00:44:10;;;;;;;5.45;4.85;;;;;;;26.50;78.76;100058.84;5024049;23;20061;-74
2022/07/19 00:46:37;;;;;;;5.68;5.15;;;;;;;26.57;78.99;100058.72;4983050;28;20364;-74
2022/07/19 00:49:04;;;;;;;6.35;5.65;;;;;;;26.64;78.98;100059.41;4984329;28;20363;-73
2022/07/19 00:51:37;;;;;;;6.93;5.40;;;;;;;26.19;80.19;100057.22;4983223;28;20404;-74
2022/07/19 00:54:03;;;;;;;5.80;5.18;;;;;;;25.97;81.63;100053.41;4984959;28;20097;-72
2022/07/19 00:56:33;;;;;;;5.90;5.40;;;;;;;26.01;81.53;100060.81;4982426;28;20039;-73
2022/07/19 00:59:02;;;;;;;5.97;5.15;;;;;;;25.99;81.89;100062.09;4985649;28;20360;-74
2022/07/19 01:01:28;;;;;;;5.40;4.90;;;;;;;26.05;81.70;100056.59;4978581;28;20383;-74
2022/07/19 01:03:54;;;;;;;8.35;5.80;;;;;;;26.11;81.50;100049.44;4987923;28;20039;-73
2022/07/19 01:06:21;;;;;;;5.57;5.07;;;;;;;26.12;82.00;100053.78;4982013;28;20033;-73
2022/07/19 01:08:47;;;;;;;6.63;6.03;;;;;;;26.15;82.25;100056.03;4983079;28;20041;-73
2022/07/19 01:11:12;;;;;;;7.28;5.75;;;;;;;26.13;82.24;100062.72;4982614;28;20034;-73
2022/07/19 01:13:38;;;;;;;7.60;5.65;;;;;;;26.10;82.38;100058.59;4981815;28;20259;-73
2022/07/19 01:16:04;;;;;;;6.32;5.72;;;;;;;26.08;82.59;100063.44;4984922;28;20445;-72
2022/07/19 01:18:29;;;;;;;6.05;5.55;;;;;;;26.06;83.07;100065.53;4982497;28;20049;-72
2022/07/19 01:20:57;;;;;;;6.72;6.13;;;;;;;26.03;83.77;100068.72;4984226;28;20023;-74
2022/07/19 01:23:23;;;;;;;6.22;5.80;;;;;;;25.97;83.47;100070.47;4982541;28;20058;-74
2022/07/19 01:25:49;;;;;;;7.07;6.47;;;;;;;25.88;84.54;100071.00;4980408;28;20458;-74
2022/07/19 01:28:14;;;;;;;7.35;6.70;;;;;;;25.75;85.48;100071.16;4984877;28;20062;-76
2022/07/19 01:30:40;;;;;;;9.77;6.45;;;;;;;25.65;86.25;100067.16;4981941;28;20038;-74
2022/07/19 01:33:06;;;;;;;7.03;6.43;;;;;;;25.55;86.87;100076.81;4984144;28;20109;-75
2022/07/19 01:35:32;;;;;;;7.13;6.50;;;;;;;25.39;88.10;100072.84;4978702;28;20501;-75
2022/07/19 01:37:57;;;;;;;7.10;6.43;;;;;;;25.32;88.84;100072.13;4981943;28;20026;-73
2022/07/19 01:40:23;;;;;;;9.10;6.20;;;;;;;25.42;88.35;100069.72;4981620;28;20038;-73
2022/07/19 01:42:49;;;;;;;11.85;7.70;;;;;;;25.52;87.89;100078.09;4983381;28;20383;-75
2022/07/19 01:45:16;;;;;;;6.88;6.22;;;;;;;25.62;87.31;100073.00;4982962;28;20043;-74
2022/07/19 01:47:42;;;;;;;6.63;6.10;;;;;;;25.69;86.91;100079.16;4982889;28;20031;-75
2022/07/19 01:50:10;;;;;;;7.20;6.57;;;;;;;25.68;87.78;100076.69;4983924;28;20040;-75
2022/07/19 01:52:37;;;;;;;6.97;6.25;;;;;;;25.63;87.41;100074.66;4983737;28;20413;-73
2022/07/19 01:55:04;;;;;;;8.70;6.82;;;;;;;25.64;87.75;100078.19;4981498;28;20035;-73
2022/07/19 01:57:29;;;;;;;7.55;6.95;;;;;;;25.66;87.82;100074.22;4982295;28;20037;-73
2022/07/19 01:59:56;;;;;;;8.00;7.40;;;;;;;25.59;88.79;100080.75;4982004;28;20031;-74
2022/07/19 02:02:22;;;;;;;7.32;6.82;;;;;;;25.41;89.29;100078.03;4981827;28;20054;-74
2022/07/19 02:04:48;;;;;;;17.42;7.57;;;;;;;25.36;89.76;100078.72;4984086;28;20043;-74
2022/07/19 02:07:14;;;;;;;10.30;7.38;;;;;;;25.34;90.02;100075.41;4982931;28;20037;-74
2022/07/19 02:09:39;;;;;;;7.97;7.18;;;;;;;25.34;90.24;100080.81;4982666;28;20046;-73
2022/07/19 02:12:05;;;;;;;9.85;7.28;;;;;;;25.32;90.42;100079.41;4981957;28;20031;-76
2022/07/19 02:14:31;;;;;;;9.38;7.20;;;;;;;25.34;90.56;100075.41;4979359;28;20069;-76
2022/07/19 02:16:56;;;;;;;9.00;7.43;;;;;;;25.35;90.54;100071.66;4982742;28;20041;-75
2022/07/19 02:19:22;;;;;;;9.82;7.30;;;;;;;25.33;90.62;100076.44;4986241;28;20089;-75
2022/07/19 02:21:48;;;;;;;8.95;7.45;;;;;;;25.25;90.79;100071.38;4981706;28;20057;-75
2022/07/19 02:24:14;;;;;;;8.68;7.47;;;;;;;25.25;91.55;100074.06;4983948;28;20026;-75
2022/07/19 02:26:40;;;;;;;8.18;7.50;;;;;;;25.19;91.96;100069.56;4978779;28;20423;-75
2022/07/19 02:29:06;;;;;;;12.10;7.47;;;;;;;25.15;92.26;100076.47;4984877;28;20097;-75
2022/07/19 02:31:32;;;;;;;9.95;8.10;;;;;;;25.11;92.44;100077.97;4978603;28;20038;-72
2022/07/19 02:33:58;;;;;;;9.40;8.38;;;;;;;25.12;92.76;100076.91;4978841;28;20549;-73
2022/07/19 02:36:23;;;;;;;8.82;8.00;;;;;;;24.98;93.65;100091.59;4978871;28;20038;-74
2022/07/19 02:38:49;;;;;;;10.60;8.38;;;;;;;24.90;94.12;100089.19;4983864;28;20037;-73
2022/07/19 02:41:15;;;;;;;9.15;8.20;;;;;;;24.93;94.14;100083.34;4980426;28;20059;-73
2022/07/19 02:43:40;;;;;;;9.20;8.02;;;;;;;24.92;93.82;100092.50;4982836;28;20039;-74
2022/07/19 02:46:06;;;;;;;9.13;8.07;;;;;;;24.96;93.67;100088.31;4980339;28;20031;-72
2022/07/19 02:48:32;;;;;;;9.57;7.85;;;;;;;24.97;93.46;100079.16;4983680;28;20245;-72
2022/07/19 02:50:58;;;;;;;8.05;7.32;;;;;;;24.98;93.80;100080.78;4982883;28;20427;-73
2022/07/19 02:53:23;;;;;;;8.75;7.90;;;;;;;24.97;93.69;100081.88;4979502;28;20033;-74
2022/07/19 02:55:49;;;;;;;8.68;7.85;;;;;;;24.94;94.00;100090.41;4984003;28;20132;-73
2022/07/19 02:58:15;;;;;;;8.55;7.75;;;;;;;24.97;93.64;100087.25;4981078;28;20042;-73
2022/07/19 03:00:41;;;;;;;8.77;8.07;;;;;;;24.95;93.64;100087.47;4978856;28;20042;-73
2022/07/19 03:05:51;;;;;;;8.20;7.35;;;;;;;24.93;93.75;100094.13;4974680;28;20431;-74
2022/07/19 03:08:17;;;;;;;9.00;8.20;;;;;;;24.96;93.66;100093.72;4982684;28;20065;-73
2022/07/19 03:10:43;;;;;;;9.00;8.18;;;;;;;24.97;93.66;100095.38;4982481;28;20092;-73
2022/07/19 03:13:09;;;;;;;9.20;7.60;;;;;;;25.03;93.43;100097.19;4982333;28;20039;-73
2022/07/19 03:15:36;;;;;;;9.00;8.20;;;;;;;25.10;93.14;100100.59;4982654;28;20038;-75
2022/07/19 03:18:02;;;;;;;10.25;8.07;;;;;;;25.11;92.71;100096.88;4980890;28;20023;-74
2022/07/19 03:20:28;;;;;;;8.43;7.60;;;;;;;25.00;93.21;100100.31;4982873;28;20037;-73
2022/07/19 03:22:54;;;;;;;8.80;7.75;;;;;;;24.91;93.61;100104.34;4982156;28;20035;-72
2022/07/19 03:25:19;;;;;;;10.10;6.75;;;;;;;24.91;93.55;100098.97;4979182;28;20039;-74
2022/07/19 03:27:45;;;;;;;7.78;7.05;;;;;;;24.91;93.82;100102.47;4980682;28;20049;-74
2022/07/19 03:30:10;;;;;;;10.52;7.22;;;;;;;24.90;93.99;100100.00;4982704;28;20034;-74
2022/07/19 03:32:36;;;;;;;8.00;7.25;;;;;;;24.65;95.60;100103.50;4980181;28;20023;-74
2022/07/19 03:35:02;;;;;;;8.43;7.70;;;;;;;24.43;97.16;100104.94;4979870;28;20026;-74
2022/07/19 03:37:28;;;;;;;12.40;7.47;;;;;;;24.23;98.55;100109.63;4981146;28;20031;-74
2022/07/19 03:39:54;;;;;;;10.18;7.10;;;;;;;24.22;98.52;100113.38;4981208;28;20129;-73
2022/07/19 03:42:19;;;;;;;8.45;7.72;;;;;;;24.22;98.70;100108.81;4982583;28;20046;-73
2022/07/19 03:44:45;;;;;;;8.65;7.90;;;;;;;24.29;98.17;100103.38;4981025;28;20052;-74
2022/07/19 03:47:10;;;;;;;7.95;7.18;;;;;;;24.32;98.21;100114.56;4980778;28;20038;-74
2022/07/19 03:49:36;;;;;;;7.78;7.13;;;;;;;24.38;97.76;100115.56;4979706;28;20035;-74
2022/07/19 03:52:02;;;;;;;8.57;7.45;;;;;;;24.47;97.03;100116.94;4982343;28;20038;-73
2022/07/19 03:54:27;;;;;;;13.02;8.45;;;;;;;24.23;98.33;100121.25;4982845;28;20035;-75
2022/07/19 03:56:55;;;;;;;8.75;7.88;;;;;;;24.13;99.28;100114.66;4981815;28;20030;-73
2022/07/19 03:59:22;;;;;;;8.90;8.07;;;;;;;24.15;99.44;100123.38;4974868;28;20038;-76
2022/07/19 04:01:49;;;;;;;8.68;7.55;;;;;;;24.21;99.23;100127.94;4977118;28;20036;-74
2022/07/19 04:04:14;;;;;;;9.95;7.60;;;;;;;24.07;100.00;100127.97;4981719;28;20045;-74
2022/07/19 04:06:40;;;;;;;8.95;8.02;;;;;;;23.90;100.00;100131.38;4978000;28;20055;-74
2022/07/19 04:09:05;;;;;;;10.32;8.15;;;;;;;23.82;100.00;100129.75;4978835;28;20068;-73
2022/07/19 04:11:31;;;;;;;9.20;8.40;;;;;;;23.73;100.00;100128.38;4980105;28;20384;-73
2022/07/19 04:13:57;;;;;;;9.38;8.35;;;;;;;23.60;100.00;100125.72;4982471;28;20041;-74
2022/07/19 04:16:22;;;;;;;9.70;8.77;;;;;;;23.58;100.00;100130.47;4979987;28;20364;-71
2022/07/19 04:18:48;;;;;;;9.68;8.75;;;;;;;23.46;100.00;100134.84;4983600;28;20041;-72
2022/07/19 04:21:13;;;;;;;9.20;8.30;;;;;;;23.60;100.00;100136.50;4981960;28;20031;-73
2022/07/19 04:23:39;;;;;;;10.15;7.93;;;;;;;23.73;100.00;100136.44;4979233;28;20110;-73
2022/07/19 04:26:04;;;;;;;8.85;8.00;;;;;;;23.83;100.00;100139.50;4977769;28;20081;-72
2022/07/19 04:28:30;;;;;;;8.85;7.95;;;;;;;23.78;100.00;100139.31;4981545;28;20030;-71
2022/07/19 04:30:56;;;;;;;10.82;7.55;;;;;;;23.78;100.00;100138.50;4981801;28;20042;-72
2022/07/19 04:33:22;;;;;;;8.38;7.68;;;;;;;23.60;100.00;100145.41;4986246;28;20082;-72
2022/07/19 04:35:47;;;;;;;9.05;8.07;;;;;;;23.43;100.00;100151.44;4983600;28;20026;-73
2022/07/19 04:38:13;;;;;;;9.60;8.70;;;;;;;23.42;100.00;100145.22;4984992;28;20234;-73
2022/07/19 04:40:39;;;;;;;10.35;9.18;;;;;;;23.28;100.00;100148.97;4996091;28;20102;-73
2022/07/19 04:43:04;;;;;;;9.13;8.43;;;;;;;23.31;100.00;100147.75;4985013;28;20153;-73
2022/07/19 04:45:30;;;;;;;8.73;7.85;;;;;;;23.44;100.00;100147.72;4982294;28;20050;-72
2022/07/19 04:47:56;;;;;;;8.63;8.02;;;;;;;23.51;100.00;100148.53;4980442;28;20042;-73
2022/07/19 04:50:22;;;;;;;9.38;8.43;;;;;;;23.60;100.00;100158.88;4984345;28;20039;-73
2022/07/19 04:52:47;;;;;;;8.93;8.07;;;;;;;23.69;100.00;100162.16;4984938;28;20030;-73
2022/07/19 04:55:14;;;;;;;8.23;7.60;;;;;;;23.74;100.00;100165.03;4968526;28;20081;-74
2022/07/19 04:57:39;;;;;;;8.23;7.63;;;;;;;23.65;100.00;100169.84;4984662;28;20113;-77
2022/07/19 05:00:11;;;;;;;9.77;8.98;;;;;;;23.61;100.00;100162.41;4980466;28;20189;-75
2022/07/19 05:02:37;;;;;;;8.90;8.00;;;;;;;23.63;100.00;100163.00;4983699;28;20026;-75
2022/07/19 05:05:04;;;;;;;13.02;7.97;;;;;;;23.73;100.00;100168.78;4982131;28;20043;-74
2022/07/19 05:07:30;;;;;;;8.85;7.97;;;;;;;23.82;100.00;100172.88;4983846;28;20037;-76
2022/07/19 05:09:56;;;;;;;8.75;7.78;;;;;;;23.94;100.00;100170.34;4983004;28;20029;-76
2022/07/19 05:12:22;;;;;;;8.88;8.07;;;;;;;24.00;100.00;100170.31;4984053;28;20030;-76
2022/07/19 05:14:48;;;;;;;8.18;7.30;;;;;;;24.05;100.00;100173.19;4967064;28;20037;-77
2022/07/19 05:17:14;;;;;;;8.50;7.90;;;;;;;24.08;100.00;100172.78;4984000;28;20046;-77
2022/07/19 05:19:40;;;;;;;8.23;7.55;;;;;;;24.12;100.00;100172.31;4983871;28;20029;-77
2022/07/19 05:22:06;;;;;;;9.45;8.57;;;;;;;23.88;100.00;100177.41;4982924;28;20105;-76
2022/07/19 05:24:32;;;;;;;11.07;8.88;;;;;;;23.89;100.00;100172.84;4981904;28;20117;-76
2022/07/19 05:26:58;;;;;;;10.60;7.75;;;;;;;23.94;100.00;100171.16;4978487;28;20042;-76
2022/07/19 05:29:23;;;;;;;8.60;7.78;;;;;;;24.01;100.00;100176.53;4987870;28;20105;-77
2022/07/19 05:31:49;;;;;;;8.68;7.60;;;;;;;24.09;100.00;100171.69;4982135;28;20026;-72
2022/07/19 05:34:15;;;;;;;8.35;7.55;;;;;;;24.21;100.00;100179.97;4984010;28;20035;-71
2022/07/19 05:36:40;;;;;;;9.65;7.70;;;;;;;24.36;99.94;100177.00;4983331;28;20034;-73
2022/07/19 05:39:06;;;;;;;8.70;7.95;;;;;;;24.43;98.60;100175.09;4983139;28;20043;-72
2022/07/19 05:41:32;;;;;;;8.90;7.45;;;;;;;24.50;97.33;100181.25;4979958;28;20110;-73
2022/07/19 05:43:58;;;;;;;8.48;7.57;;;;;;;24.54;97.04;100182.47;4984177;28;20042;-72
2022/07/19 05:46:23;;;;;;;10.93;7.82;;;;;;;24.58;96.97;100189.06;4981709;28;20045;-73
2022/07/19 05:48:49;;;;;;;14.55;8.77;;;;;;;24.62;96.55;100189.50;4969244;28;20034;-72
2022/07/19 05:51:15;;;;;;;9.00;8.07;;;;;;;24.68;96.08;100189.41;4970006;28;20035;-73
2022/07/19 05:53:41;;;;;;;9.63;8.73;;;;;;;24.65;95.49;100195.25;4970777;28;20031;-73
2022/07/19 05:56:07;;;;;;;10.50;8.98;;;;;;;24.64;95.73;100190.06;4977150;28;20054;-73
2022/07/19 05:58:32;;;;;;;9.20;8.40;;;;;;;24.64;95.63;100192.78;4967520;28;20038;-72
2022/07/19 06:03:42;;;;;;;11.48;7.72;;;;;;;24.88;95.16;100192.81;4969171;28;20039;-72
2022/07/19 06:06:08;;;;;;;9.02;8.23;;;;;;;25.00;94.76;100192.09;4293564;28;10000708;-73
2022/07/19 06:08:33;;;;;;;9.55;8.55;;;;;;;25.12;93.75;100190.34;4965278;28;20093;-73
2022/07/19 06:10:59;;;;;;;10.30;8.32;;;;;;;25.20;92.89;100193.59;4966460;28;20034;-72
2022/07/19 06:13:25;;;;;;;10.05;8.25;;;;;;;25.31;92.63;100194.72;4960317;28;20083;-72
2022/07/19 06:15:51;;;;;;;7.60;6.75;;;;;;;25.37;89.03;100199.25;4961659;28;20479;-73
2022/07/19 06:18:17;;;;;;;9.13;7.32;;;;;;;25.37;86.98;100201.94;4962294;28;20525;-73
2022/07/19 06:20:43;;;;;;;7.82;7.03;;;;;;;25.51;86.88;100200.75;4963132;28;20150;-72
2022/07/19 06:23:17;;;;;;;6.63;6.01;;;;;;;25.69;83.08;100197.25;4922277;28;10000460;-72
2022/07/19 06:25:43;;;;;;;8.57;5.25;;;;;;;25.84;81.04;100195.00;4964882;28;20256;-72
2022/07/19 06:28:09;;;;;;;6.43;5.28;;;;;;;25.98;79.62;100201.06;4964593;28;20035;-73
2022/07/19 06:30:34;;;;;;;8.93;5.43;;;;;;;26.12;76.16;100196.31;4964469;28;20046;-73
2022/07/19 06:33:00;;;;;;;6.57;5.10;;;;;;;26.21;75.02;100205.78;4966926;28;20037;-72
2022/07/19 06:35:26;;;;;;;5.05;4.55;;;;;;;26.31;73.67;100200.66;4962541;28;20069;-72
2022/07/19 06:37:51;;;;;;;5.70;5.20;;;;;;;26.35;72.96;100197.25;4972728;28;20070;-73
2022/07/19 06:40:17;;;;;;;5.47;4.97;;;;;;;26.44;72.48;100195.91;4970582;28;20028;-73
2022/07/19 06:42:43;;;;;;;7.82;4.60;;;;;;;26.55;72.12;100191.56;4984532;28;20065;-73
2022/07/19 06:45:09;;;;;;;12.90;4.60;;;;;;;26.65;71.14;100199.13;4960710;28;20046;-73
2022/07/19 06:47:37;;;;;;;10.98;5.85;;;;;;;26.71;69.72;100190.91;4961968;28;20368;-72
2022/07/19 06:50:04;;;;;;;5.97;4.80;;;;;;;26.73;68.72;100199.63;4930372;28;20387;-73
2022/07/19 06:52:29;;;;;;;8.40;5.20;;;;;;;26.82;68.86;100194.69;4942329;28;20038;-73
2022/07/19 06:54:55;;;;;;;13.10;5.00;;;;;;;26.87;67.53;100195.63;4951906;28;20046;-71
2022/07/19 06:57:20;;;;;;;5.88;4.30;;;;;;;26.94;67.43;100197.44;4931371;28;20034;-73
2022/07/19 06:59:46;;;;;;;6.72;4.72;;;;;;;27.02;67.20;100199.81;4950378;28;20126;-71
2022/07/19 07:02:11;;;;;;;8.48;4.40;;;;;;;27.08;66.71;100196.97;4958327;28;20055;-71
2022/07/19 07:04:37;;;;;;;7.35;4.32;;;;;;;27.18;66.35;100208.06;4960334;28;20031;-71
2022/07/19 07:07:02;;;;;;;6.07;4.30;;;;;;;27.23;64.99;100210.88;4944008;28;20028;-74
2022/07/19 07:09:28;;;;;;;4.68;3.85;;;;;;;27.28;62.65;100207.44;4945732;28;20031;-72
2022/07/19 07:11:54;;;;;;;6.32;3.72;;;;;;;27.34;62.38;100200.25;4953836;28;20031;-71
2022/07/19 07:14:19;;;;;;;5.13;4.63;;;;;;;27.39;61.74;100212.03;4953661;28;20039;-72
2022/07/19 07:16:45;;;;;;;8.30;3.80;;;;;;;27.44;58.30;100211.34;4955204;28;20043;-72
2022/07/19 07:19:10;;;;;;;4.35;3.90;;;;;;;27.39;57.41;100203.13;4956473;28;20200;-72
2022/07/19 07:21:36;;;;;;;4.07;3.75;;;;;;;27.43;57.83;100205.09;4962062;28;20081;-73
2022/07/19 07:24:03;;;;;;;4.63;3.83;;;;;;;27.50;57.52;100210.41;4961657;28;20050;-73
2022/07/19 07:26:29;;;;;;;7.90;4.13;;;;;;;27.55;57.78;100197.00;4949612;28;20035;-72
2022/07/19 07:28:55;;;;;;;7.28;4.43;;;;;;;27.60;58.23;100205.22;4960119;28;20412;-72
2022/07/19 07:31:20;;;;;;;4.32;3.92;;;;;;;27.67;58.08;100200.50;4961618;28;20046;-73
2022/07/19 07:33:46;;;;;;;6.45;3.83;;;;;;;27.70;57.66;100205.44;4959692;28;20038;-73
2022/07/19 07:36:11;;;;;;;4.40;3.63;;;;;;;27.71;55.32;100201.66;4956844;28;20046;-72
2022/07/19 07:38:37;;;;;;;4.82;3.47;;;;;;;27.78;55.40;100201.53;4959954;28;20090;-72
2022/07/19 07:41:04;;;;;;;8.95;3.83;;;;;;;27.83;55.22;100199.75;4947773;28;20070;-72
2022/07/19 07:43:30;;;;;;;7.60;3.78;;;;;;;27.88;55.54;100197.16;4961637;28;20092;-72
2022/07/19 07:45:55;;;;;;;5.35;4.00;;;;;;;27.93;55.82;100194.53;4982402;28;20058;-72
2022/07/19 07:48:21;;;;;;;4.35;3.90;;;;;;;28.02;54.82;100190.41;4980027;28;20458;-72
2022/07/19 07:50:47;;;;;;;10.55;3.20;;;;;;;28.09;54.65;100193.81;4981861;28;20087;-72
2022/07/19 07:53:12;;;;;;;4.03;3.42;;;;;;;28.17;51.80;100194.47;4981516;28;20038;-72
2022/07/19 07:55:41;;;;;;;7.10;3.42;;;;;;;28.27;51.01;100194.69;4978166;28;20035;-70
2022/07/19 07:58:11;;;;;;;3.42;3.13;;;;;;;28.33;50.10;100193.72;4977751;28;20030;-71
2022/07/19 08:00:37;;;;;;;;;;;;;;;28.40;49.53;100186.25;4979011;28;20113;-72
2022/07/19 08:03:03;;;;;;;4.78;3.10;;;;;;;28.55;49.88;100197.38;4978257;28;19917;-70
2022/07/19 08:05:29;;;;;;;3.78;3.38;;;;;;;28.76;48.73;100193.16;4983463;28;20042;-71
2022/07/19 08:07:55;;;;;;;4.15;3.20;;;;;;;28.90;47.80;100195.31;4979370;28;20114;-70
2022/07/19 08:10:22;;;;;;;7.38;3.45;;;;;;;28.98;46.07;100193.25;4978415;28;20038;-70
2022/07/19 08:12:48;;;;;;;3.22;2.92;;;;;;;29.11;44.48;100184.75;4969870;28;20537;-72
2022/07/19 08:15:13;;;;;;;5.75;3.15;;;;;;;29.21;44.52;100190.34;4976164;28;20130;-72
2022/07/19 08:17:39;;;;;;;4.05;3.38;;;;;;;29.27;43.59;100178.47;4977058;28;20038;-71
2022/07/19 08:20:05;;;;;;;3.53;3.20;;;;;;;29.35;44.28;100186.22;4965469;28;20407;-72
2022/07/19 08:22:31;;;;;;;4.18;2.90;;;;;;;29.41;45.16;100179.78;4961534;28;20123;-71
2022/07/19 08:24:57;;;;;;;5.10;3.30;;;;;;;29.49;43.87;100187.53;4970154;28;20579;-70
2022/07/19 08:27:23;;;;;;;5.13;3.03;;;;;;;29.60;43.01;100183.84;4972613;28;20045;-73
2022/07/19 08:29:48;;;;;;;4.15;2.83;;;;;;;29.67;42.87;100184.50;4981440;28;20030;-75
2022/07/19 08:32:14;;;;;;;4.13;2.80;;;;;;;29.75;40.64;100185.13;4979521;28;20042;-74
2022/07/19 08:34:40;;;;;;;4.95;2.47;;;;;;;29.76;37.63;100182.16;4984367;28;20034;-72
2022/07/19 08:37:06;;;;;;;5.30;2.72;;;;;;;29.71;37.05;100185.63;4983170;28;20203;-71
2022/07/19 08:39:31;;;;;;;3.17;2.30;;;;;;;29.65;38.48;100180.38;4984310;28;20038;-75
2022/07/19 08:41:57;;;;;;;4.00;2.00;;;;;;;29.69;35.73;100187.78;4984533;28;20033;-71
2022/07/19 08:44:23;;;;;;;2.50;2.03;;;;;;;29.87;34.75;100188.53;4982133;28;20340;-71
2022/07/19 08:46:49;;;;;;;3.60;2.15;;;;;;;29.92;34.80;100180.47;4984220;28;20026;-72
2022/07/19 08:49:16;;;;;;;2.40;2.20;;;;;;;30.03;35.05;100179.53;4985311;28;20459;-72
2022/07/19 08:51:42;;;;;;;3.42;2.42;;;;;;;30.04;36.27;100184.69;4981632;28;20376;-73
2022/07/19 08:54:08;;;;;;;2.63;2.42;;;;;;;30.07;37.78;100186.91;4975347;28;20039;-72
2022/07/19 08:59:18;;;;;;;2.60;2.40;;;;;;;30.10;36.25;100166.53;4984593;28;20057;-72
2022/07/19 09:01:44;;;;;;;4.68;1.83;;;;;;;30.13;34.41;100171.47;4985238;28;20467;-72
2022/07/19 09:04:18;;;;;;;2.35;1.85;;;;;;;30.22;34.05;100175.34;4984645;28;20428;-73
2022/07/19 09:06:53;;;;;;;2.83;1.75;;;;;;;30.29;33.24;100175.16;4984445;28;20143;-72
2022/07/19 09:09:21;;;;;;;2.90;2.28;;;;;;;30.31;33.32;100167.56;4985253;28;20041;-71
2022/07/19 09:11:50;;;;;;;2.15;1.85;;;;;;;30.37;32.64;100164.63;4978135;28;20412;-72
2022/07/19 09:14:19;;;;;;;2.55;1.70;;;;;;;30.45;32.01;100175.06;4983986;28;20413;-72
2022/07/19 09:17:00;;;;;;;2.10;1.90;;;;;;;30.47;30.95;100167.44;4982329;28;20035;-72
2022/07/19 09:19:27;;;;;;;1.95;1.85;;;;;;;30.53;31.24;100154.72;4979097;28;20502;-72
2022/07/19 09:21:55;;;;;;;1.85;1.75;;;;;;;30.54;31.97;100155.53;4980053;28;20038;-72
2022/07/19 09:24:22;;;;;;;3.20;2.20;;;;;;;30.54;31.77;100155.53;4985089;28;20387;-71
2022/07/19 09:27:04;;;;;;;2.20;2.10;;;;;;;30.64;32.01;100151.00;4984560;28;20030;-71
2022/07/19 09:29:32;;;;;;;4.05;2.20;;;;;;;30.69;31.14;100152.97;4983838;28;20034;-72
2022/07/19 09:32:06;;;;;;;1.70;1.60;;;;;;;30.79;31.33;100150.31;4982038;28;20042;-71
2022/07/19 09:34:34;;;;;;;3.00;1.90;;;;;;;30.86;30.67;100148.19;4983184;28;20042;-72
2022/07/19 09:37:12;;;;;;;1.98;1.75;;;;;;;30.90;29.34;100150.13;4982522;28;20379;-73
2022/07/19 09:39:44;;;;;;;3.38;2.00;;;;;;;30.86;29.93;100148.19;4982214;28;20387;-72
2022/07/19 09:42:12;;;;;;;2.47;2.20;;;;;;;30.87;30.86;100144.38;4985225;28;20030;-72
2022/07/19 09:44:38;;;;;;;3.50;2.20;;;;;;;30.96;30.18;100153.72;4983693;28;20038;-72
2022/07/19 09:47:04;;;;;;;2.10;2.00;;;;;;;30.92;29.77;100147.97;4983855;28;20109;-73
2022/07/19 09:49:29;;;;;;;1.98;1.77;;;;;;;30.91;29.64;100135.44;4984100;28;20034;-72
2022/07/19 09:51:55;;;;;;;1.92;1.80;;;;;;;30.99;29.61;100139.53;4971842;28;20114;-72
2022/07/19 09:54:26;;;;;;;3.75;1.90;;;;;;;31.00;29.91;100141.19;4977651;28;20038;-73
2022/07/19 09:56:54;;;;;;;3.75;2.08;;;;;;;31.07;30.04;100136.38;4971452;28;20101;-73
2022/07/19 09:59:21;;;;;;;4.05;2.22;;;;;;;31.08;29.75;100135.28;4969167;28;20038;-73
2022/07/19 10:01:48;;;;;;;2.10;2.00;;;;;;;31.06;30.14;100137.44;4983030;28;20387;-73
2022/07/19 10:04:16;;;;;;;2.03;1.83;;;;;;;31.12;29.32;100122.78;4983799;28;20034;-73
2022/07/19 10:06:43;;;;;;;3.10;1.77;;;;;;;31.25;28.89;100133.22;4984072;28;20375;-73
2022/07/19 10:09:12;;;;;;;1.90;1.80;;;;;;;31.44;29.35;100132.75;4983574;28;20019;-73
2022/07/19 10:11:39;;;;;;;2.25;2.00;;;;;;;31.54;28.84;100127.34;4984719;28;20033;-73
2022/07/19 10:14:05;;;;;;;2.65;2.30;;;;;;;31.75;29.02;100126.38;4983211;28;20031;-73
2022/07/19 10:16:48;;;;;;;5.28;2.95;;;;;;;31.82;28.97;100121.47;4979996;28;20383;-73
2022/07/19 10:19:25;;;;;;;3.45;3.15;;;;;;;31.80;29.55;100120.94;4983124;28;20381;-72
2022/07/19 10:21:52;;;;;;;5.00;3.63;;;;;;;31.70;30.36;100115.41;4983905;28;20105;-73
2022/07/19 10:24:55;;;;;;;4.70;3.17;;;;;;;31.80;29.55;100112.75;4982549;28;20027;-73
2022/07/19 10:27:24;;;;;;;10.50;3.50;;;;;;;31.83;29.21;100106.75;4980104;28;20027;-73
2022/07/19 10:30:11;;;;;;;3.87;2.70;;;;;;;31.85;29.20;100104.56;4292067;28;10000663;-74
2022/07/19 10:32:42;;;;;;;4.07;2.88;;;;;;;31.88;30.26;100101.28;4972176;28;20187;-74
2022/07/19 10:35:18;;;;;;;3.03;2.83;;;;;;;32.05;29.72;100096.41;4979969;28;20038;-73
2022/07/19 10:37:52;;;;;;;3.40;3.10;;;;;;;32.10;30.07;100101.88;4979981;28;20087;-73
2022/07/19 10:40:48;;;;;;;4.20;3.67;;;;;;;32.13;30.18;100097.81;4980291;28;20030;-73
2022/07/19 10:43:18;;;;;;;3.78;3.47;;;;;;;32.12;29.09;100090.69;4978831;28;20039;-73
2022/07/19 10:45:56;;;;;;;;;;;;;;;32.03;29.03;100087.69;4976230;28;20037;-73
2022/07/19 10:48:34;;;;;;;3.28;3.03;;;;;;;31.91;30.36;100083.56;4972719;28;19929;-72
2022/07/19 10:51:00;;;;;;;5.38;3.15;;;;;;;31.91;30.64;100076.19;4975143;28;20200;-73
2022/07/19 10:53:41;;;;;;;3.60;3.22;;;;;;;31.86;30.39;100084.38;4977484;28;20109;-74
2022/07/19 10:56:34;;;;;;;4.15;3.40;;;;;;;32.09;30.54;100086.59;4975672;28;20132;-73
2022/07/19 10:59:07;;;;;;;4.32;3.78;;;;;;;32.31;30.35;100082.81;4970322;28;20530;-72
2022/07/19 11:01:34;;;;;;;4.50;4.10;;;;;;;32.41;29.99;100086.38;4976687;28;20031;-73
2022/07/19 11:04:28;;;;;;;4.38;4.00;;;;;;;32.48;29.38;100078.72;4623760;28;10000816;-73
2022/07/19 11:07:14;;;;;;;3.25;2.95;;;;;;;32.40;28.89;100082.00;4977334;28;20039;-73
2022/07/19 11:09:47;;;;;;;6.25;3.33;;;;;;;32.40;29.05;100084.72;4982622;28;20045;-72
2022/07/19 11:12:34;;;;;;;3.95;3.30;;;;;;;32.44;29.57;100077.63;4978710;28;20027;-72
2022/07/19 11:15:03;;;;;;;4.80;3.50;;;;;;;32.49;29.71;100074.06;4967799;28;20042;-73
2022/07/19 11:17:29;;;;;;;4.95;3.53;;;;;;;32.41;30.48;100066.41;4981408;28;20035;-73
2022/07/19 11:19:59;;;;;;;4.68;3.63;;;;;;;32.27;30.50;100057.97;4978711;28;20116;-73
2022/07/19 11:22:24;;;;;;;5.93;3.50;;;;;;;32.25;30.73;100062.06;4977987;28;20043;-72
2022/07/19 11:24:50;;;;;;;3.95;3.60;;;;;;;32.32;30.72;100051.69;4981945;28;20096;-72
2022/07/19 11:27:16;;;;;;;3.90;3.53;;;;;;;32.45;30.61;100056.59;4982656;28;20041;-72
2022/07/19 11:29:56;;;;;;;3.92;3.63;;;;;;;32.52;29.50;100055.22;4977270;28;20081;-72
2022/07/19 11:32:22;;;;;;;4.18;3.78;;;;;;;32.60;29.33;100051.13;4978107;28;20031;-72